createdAt,value
2019-04-22T00:01:56.933Z,2.08
2019-04-22T00:04:35.389Z,2.27
2019-04-22T00:07:18.531Z,1.87
2019-04-22T00:09:47.420Z,1.80
2019-04-22T00:12:22.324Z,1.52
2019-04-22T00:14:42.014Z,1.82
2019-04-22T00:17:22.046Z,1.50
2019-04-22T00:19:50.740Z,1.75
2019-04-22T00:24:46.361Z,2.20
2019-04-22T00:27:26.137Z,1.92
2019-04-22T00:29:59.889Z,1.62
2019-04-22T00:32:18.204Z,2.30
2019-04-22T00:34:54.774Z,1.95
2019-04-22T00:37:28.814Z,2.00
2019-04-22T00:40:03.154Z,1.47
2019-04-22T00:42:29.565Z,1.70
2019-04-22T00:45:04.984Z,1.98
2019-04-22T00:47:27.857Z,1.57
2019-04-22T00:52:28.193Z,1.70
2019-04-22T00:55:01.898Z,1.77
2019-04-22T00:57:28.054Z,1.80
2019-04-22T01:00:01.481Z,1.85
2019-04-22T01:02:27.837Z,1.77
2019-04-22T01:05:21.344Z,1.75
2019-04-22T01:07:43.409Z,1.72
2019-04-22T01:10:23.706Z,1.70
2019-04-22T01:12:46.731Z,1.67
2019-04-22T01:15:23.422Z,1.50
2019-04-22T01:17:45.276Z,1.80
2019-04-22T01:20:39.077Z,1.80
2019-04-22T01:22:45.768Z,1.90
2019-04-22T01:25:14.678Z,2.05
2019-04-22T01:27:41.918Z,1.98
2019-04-22T01:30:25.236Z,1.62
2019-04-22T01:32:49.367Z,1.40
2019-04-22T01:35:28.947Z,1.45
2019-04-22T01:38:01.492Z,1.70
2019-04-22T01:40:50.831Z,1.87
2019-04-22T01:43:16.898Z,1.75
2019-04-22T01:45:39.505Z,2.22
2019-04-22T01:48:11.183Z,1.67
2019-04-22T01:50:41.070Z,1.42
2019-04-22T01:53:11.789Z,1.70
2019-04-22T01:55:45.484Z,1.75
2019-04-22T01:58:08.548Z,1.35
2019-04-22T02:00:49.436Z,1.37
2019-04-22T02:03:12.687Z,1.30
2019-04-22T02:05:46.298Z,1.50
2019-04-22T02:08:15.377Z,1.67
2019-04-22T02:10:47.754Z,1.90
2019-04-22T02:13:15.864Z,1.70
2019-04-22T02:15:47.791Z,1.77
2019-04-22T02:18:18.008Z,1.72
2019-04-22T02:20:46.269Z,1.42
2019-04-22T02:23:45.637Z,1.87
2019-04-22T02:48:53.311Z,1.90
2019-04-22T02:51:12.389Z,2.00
2019-04-22T02:56:13.359Z,2.10
2019-04-22T02:58:52.293Z,1.67
2019-04-22T03:06:15.964Z,2.15
2019-04-22T03:08:41.483Z,1.60
2019-04-22T03:11:16.777Z,1.87
2019-04-22T03:21:14.658Z,1.57
2019-04-22T03:23:45.539Z,2.03
2019-04-22T03:26:18.420Z,2.57
2019-04-22T03:31:27.365Z,1.87
2019-04-22T03:33:52.135Z,2.10
2019-04-22T03:36:42.815Z,1.80
2019-04-22T03:38:59.404Z,1.80
2019-04-22T03:41:15.233Z,1.90
2019-04-22T03:43:55.792Z,1.87
2019-04-22T03:46:17.094Z,2.10
2019-04-22T03:48:45.400Z,2.07
2019-04-22T03:51:16.440Z,2.13
2019-04-22T03:53:38.473Z,2.30
2019-04-22T03:56:18.473Z,2.13
2019-04-22T03:58:51.133Z,1.97
2019-04-22T04:03:45.519Z,2.07
2019-04-22T04:06:17.071Z,2.27
2019-04-22T04:11:12.954Z,2.30
2019-04-22T04:13:57.945Z,1.73
2019-04-22T04:16:10.890Z,2.00
2019-04-22T04:18:53.336Z,1.80
2019-04-22T04:24:01.107Z,2.00
2019-04-22T04:26:16.631Z,1.90
2019-04-22T04:28:50.982Z,2.03
2019-04-22T04:31:25.119Z,1.60
2019-04-22T04:36:07.875Z,1.63
2019-04-22T04:38:45.652Z,1.80
2019-04-22T04:41:23.125Z,1.90
2019-04-22T04:44:06.184Z,1.43
2019-04-22T04:46:37.806Z,1.80
2019-04-22T04:48:56.162Z,1.77
2019-04-22T04:51:23.948Z,1.93
2019-04-22T04:53:47.546Z,1.90
2019-04-22T05:01:23.220Z,1.62
2019-04-22T05:03:48.924Z,2.10
2019-04-22T05:06:12.572Z,2.00
2019-04-22T05:09:10.013Z,2.33
2019-04-22T05:11:14.275Z,2.00
2019-04-22T05:13:49.799Z,2.30
2019-04-22T05:16:25.466Z,2.13
2019-04-22T05:18:47.209Z,2.12
2019-04-22T05:21:14.200Z,1.87
2019-04-22T05:26:10.829Z,2.22
2019-04-22T05:28:37.656Z,2.12
2019-04-22T05:31:16.176Z,2.50
2019-04-22T05:33:45.259Z,2.03
2019-04-22T05:36:12.654Z,2.53
2019-04-22T05:38:57.607Z,2.40
2019-04-22T05:41:08.826Z,2.63
2019-04-22T05:43:41.066Z,2.17
2019-04-22T05:46:09.066Z,1.85
2019-04-22T05:48:46.668Z,2.50
2019-04-22T05:51:16.357Z,2.85
2019-04-22T05:53:42.818Z,2.50
2019-04-22T05:56:15.520Z,2.35
2019-04-22T05:58:49.575Z,2.40
2019-04-22T06:03:49.323Z,3.00
2019-04-22T06:06:12.685Z,2.35
2019-04-22T06:08:40.173Z,2.70
2019-04-22T06:11:16.717Z,2.55
2019-04-22T06:13:41.750Z,2.05
2019-04-22T06:16:12.984Z,1.82
2019-04-22T06:18:38.389Z,2.12
2019-04-22T06:23:46.357Z,2.30
2019-04-22T06:28:48.458Z,2.33
2019-04-22T06:33:48.458Z,2.12
2019-04-22T06:36:23.329Z,2.60
2019-04-22T06:38:53.278Z,2.25
2019-04-22T06:41:21.294Z,2.33
2019-04-22T06:43:55.972Z,2.15
2019-04-22T06:46:21.422Z,2.50
2019-04-22T06:48:48.967Z,2.58
2019-04-22T06:51:19.879Z,2.17
2019-04-22T06:53:47.801Z,2.30
2019-04-22T06:56:20.625Z,2.10
2019-04-22T06:59:06.646Z,2.47
2019-04-22T07:01:40.458Z,2.05
2019-04-22T07:06:29.578Z,2.20
2019-04-22T07:09:26.594Z,1.90
2019-04-22T07:11:18.762Z,1.90
2019-04-22T07:13:50.390Z,2.02
2019-04-22T07:16:26.212Z,1.90
2019-04-22T07:18:48.725Z,1.70
2019-04-22T07:21:20.977Z,1.70
2019-04-22T07:24:03.141Z,1.67
2019-04-22T07:26:21.957Z,2.08
2019-04-22T07:28:50.530Z,1.47
2019-04-22T07:31:20.920Z,1.90
2019-04-22T07:33:51.791Z,1.85
2019-04-22T07:38:45.596Z,1.67
2019-04-22T07:41:23.106Z,2.30
2019-04-22T07:44:07.456Z,1.57
2019-04-22T07:46:18.633Z,1.92
2019-04-22T07:48:53.651Z,1.32
2019-04-22T07:51:24.966Z,1.67
2019-04-22T07:53:52.449Z,1.40
2019-04-22T07:56:24.181Z,1.65
2019-04-22T07:58:53.284Z,1.70
2019-04-22T08:01:20.195Z,1.70
2019-04-22T08:03:58.721Z,1.62
2019-04-22T08:06:23.377Z,1.50
2019-04-22T08:08:58.362Z,1.55
2019-04-22T08:11:37.384Z,1.45
2019-04-22T08:13:54.837Z,1.87
2019-04-22T08:16:26.241Z,1.37
2019-04-22T08:18:57.626Z,1.42
2019-04-22T08:21:22.282Z,1.10
2019-04-22T08:23:57.548Z,1.27
2019-04-22T08:26:30.469Z,1.45
2019-04-22T08:29:02.298Z,1.22
2019-04-22T08:31:28.308Z,1.62
2019-04-22T08:33:54.613Z,1.20
2019-04-22T08:36:26.294Z,1.40
2019-04-22T08:39:02.454Z,1.35
2019-04-22T08:41:34.884Z,1.40
2019-04-22T08:44:05.417Z,1.20
2019-04-22T08:49:00.756Z,1.25
2019-04-22T08:51:25.347Z,1.42
2019-04-22T08:53:59.785Z,1.20
2019-04-22T08:56:32.229Z,1.25
2019-04-22T08:59:04.746Z,1.20
2019-04-22T09:01:27.172Z,1.57
2019-04-22T09:03:58.449Z,1.20
2019-04-22T09:06:48.077Z,1.50
2019-04-22T09:09:01.923Z,1.50
2019-04-22T09:11:38.782Z,1.62
2019-04-22T09:14:04.511Z,1.45
2019-04-22T09:16:34.734Z,1.55
2019-04-22T09:18:59.454Z,1.70
2019-04-22T09:24:00.443Z,1.40
2019-04-22T09:26:34.066Z,1.40
2019-04-22T09:28:59.817Z,1.17
2019-04-22T09:31:23.899Z,1.70
2019-04-22T09:33:53.147Z,1.50
2019-04-22T09:36:34.018Z,1.52
2019-04-22T09:38:55.725Z,1.40
2019-04-22T09:41:36.098Z,1.50
2019-04-22T09:43:56.728Z,1.22
2019-04-22T09:46:39.162Z,1.40
2019-04-22T09:51:31.748Z,1.52
2019-04-22T09:54:08.878Z,1.75
2019-04-22T09:56:31.869Z,1.15
2019-04-22T09:59:02.376Z,1.10
2019-04-22T10:01:48.244Z,1.17
2019-04-22T10:04:03.710Z,1.00
2019-04-22T10:11:32.590Z,1.30
2019-04-22T10:13:59.786Z,1.00
2019-04-22T10:19:05.741Z,0.95
2019-04-22T10:21:40.682Z,1.15
2019-04-22T10:24:03.544Z,1.17
2019-04-22T10:26:33.485Z,1.30
2019-04-22T10:29:18.374Z,1.27
2019-04-22T10:31:38.218Z,1.02
2019-04-22T10:33:53.250Z,1.20
2019-04-22T10:36:07.985Z,1.27
2019-04-22T10:38:36.787Z,1.50
2019-04-22T10:41:05.473Z,1.40
2019-04-22T10:43:34.843Z,1.50
2019-04-22T10:46:04.157Z,1.15
2019-04-22T10:48:32.458Z,1.40
2019-04-22T10:51:01.227Z,1.30
2019-04-22T10:53:29.629Z,1.30
2019-04-22T10:55:58.775Z,1.50
2019-04-22T10:58:28.645Z,1.50
2019-04-22T11:00:58.191Z,1.47
2019-04-22T11:03:28.289Z,1.30
2019-04-22T11:05:57.064Z,1.37
2019-04-22T11:08:35.030Z,1.27
2019-04-22T11:11:11.512Z,1.70
2019-04-22T11:13:26.161Z,1.30
2019-04-22T11:15:55.062Z,1.22
2019-04-22T11:18:23.474Z,1.30
2019-04-22T11:20:51.872Z,1.17
2019-04-22T11:23:20.571Z,1.50
2019-04-22T11:25:50.060Z,1.47
2019-04-22T11:28:19.916Z,1.65
2019-04-22T11:30:48.247Z,1.45
2019-04-22T11:33:18.284Z,1.47
2019-04-22T11:35:47.961Z,1.32
2019-04-22T11:38:17.273Z,1.35
2019-04-22T11:40:51.765Z,1.40
2019-04-22T11:43:16.471Z,1.20
2019-04-22T11:45:45.208Z,1.60
2019-04-22T11:48:15.305Z,1.40
2019-04-22T11:50:44.135Z,1.80
2019-04-22T11:53:13.122Z,1.50
2019-04-22T11:55:42.591Z,1.52
2019-04-22T11:58:12.705Z,1.45
2019-04-22T12:00:43.143Z,1.60
2019-04-22T12:03:12.686Z,1.60
2019-04-22T12:05:41.708Z,1.62
2019-04-22T12:08:11.262Z,1.50
2019-04-22T12:10:46.884Z,1.70
2019-04-22T12:13:10.353Z,2.00
2019-04-22T12:15:38.664Z,1.90
2019-04-22T12:18:09.235Z,1.72
2019-04-22T12:20:39.211Z,2.02
2019-04-22T12:23:09.282Z,1.80
2019-04-22T12:25:46.176Z,1.52
2019-04-22T12:28:09.021Z,1.87
2019-04-22T12:30:37.649Z,1.77
2019-04-22T12:33:09.287Z,1.65
2019-04-22T12:35:36.986Z,1.57
2019-04-22T12:38:08.654Z,1.42
2019-04-22T12:40:44.736Z,1.40
2019-04-22T12:43:06.676Z,1.85
2019-04-22T12:45:36.327Z,1.30
2019-04-22T12:48:04.661Z,1.80
2019-04-22T12:50:35.749Z,1.47
2019-04-22T12:53:07.249Z,1.60
2019-04-22T12:55:34.192Z,1.12
2019-04-22T12:58:02.962Z,1.45
2019-04-22T13:00:32.228Z,1.55
2019-04-22T13:03:01.150Z,1.45
2019-04-22T13:05:31.241Z,1.30
2019-04-22T13:08:00.147Z,1.67
2019-04-22T13:10:40.454Z,1.50
2019-04-22T13:12:58.757Z,1.27
2019-04-22T13:15:26.912Z,1.42
2019-04-22T13:18:05.745Z,1.87
2019-04-22T13:20:26.201Z,1.00
2019-04-22T13:22:54.753Z,1.62
2019-04-22T13:25:27.975Z,1.50
2019-04-22T13:27:55.288Z,1.50
2019-04-22T13:30:23.744Z,1.20
2019-04-22T13:32:52.684Z,1.47
2019-04-22T13:35:22.687Z,1.40
2019-04-22T13:37:53.039Z,1.50
2019-04-22T13:40:21.352Z,1.20
2019-04-22T13:42:51.079Z,1.40
2019-04-22T13:45:20.062Z,1.32
2019-04-22T13:48:06.859Z,1.30
2019-04-22T13:50:49.416Z,1.47
2019-04-22T13:53:33.711Z,1.30
2019-04-22T13:55:44.981Z,1.30
2019-04-22T13:58:03.870Z,1.57
2019-04-22T14:00:22.544Z,1.70
2019-04-22T14:02:52.888Z,1.75
2019-04-22T14:05:22.610Z,1.40
2019-04-22T14:07:53.703Z,1.85
2019-04-22T14:10:20.892Z,1.40
2019-04-22T14:12:49.273Z,1.40
2019-04-22T14:15:20.067Z,1.55
2019-04-22T14:17:49.230Z,1.65
2019-04-22T14:20:18.795Z,1.37
2019-04-22T14:22:48.490Z,1.65
2019-04-22T14:25:18.687Z,1.60
2019-04-22T14:27:54.381Z,1.32
2019-04-22T14:30:18.818Z,1.47
2019-04-22T14:32:47.774Z,1.57
2019-04-22T14:35:16.927Z,1.25
2019-04-22T14:38:06.318Z,1.40
2019-04-22T14:40:36.444Z,1.90
2019-04-22T14:43:24.771Z,1.50
2019-04-22T14:48:28.612Z,1.62
2019-04-22T14:50:56.279Z,1.65
2019-04-22T14:53:26.271Z,1.77
2019-04-22T14:55:38.236Z,1.30
2019-04-22T14:58:06.853Z,1.35
2019-04-22T15:00:35.933Z,1.62
2019-04-22T15:03:05.895Z,1.40
2019-04-22T15:05:34.437Z,1.60
2019-04-22T15:08:03.319Z,1.50
2019-04-22T15:10:33.659Z,1.50
2019-04-22T15:13:03.056Z,1.50
2019-04-22T15:15:42.114Z,1.20
2019-04-22T15:18:10.717Z,1.62
2019-04-22T15:20:50.202Z,1.50
2019-04-22T15:23:16.911Z,1.72
2019-04-22T15:25:46.457Z,1.32
2019-04-22T15:28:15.355Z,1.32
2019-04-22T15:30:43.884Z,1.35
2019-04-22T15:33:12.292Z,1.70
2019-04-22T15:35:41.038Z,1.30
2019-04-22T15:38:11.125Z,1.37
2019-04-22T15:40:40.690Z,1.10
2019-04-22T15:43:10.865Z,1.37
2019-04-22T15:45:41.116Z,1.55
2019-04-22T15:48:10.312Z,1.37
2019-04-22T15:50:40.532Z,1.70
2019-04-22T15:53:09.813Z,1.70
2019-04-22T15:55:38.901Z,1.20
2019-04-22T15:58:08.031Z,1.47
2019-04-22T16:00:49.229Z,1.82
2019-04-22T16:03:09.128Z,1.70
2019-04-22T16:05:36.667Z,1.80
2019-04-22T16:08:06.541Z,1.40
2019-04-22T16:10:35.632Z,1.70
2019-04-22T16:13:11.298Z,1.82
2019-04-22T16:15:34.510Z,2.15
2019-04-22T16:18:04.756Z,1.62
2019-04-22T16:20:34.364Z,1.90
2019-04-22T16:23:13.472Z,1.50
2019-04-22T16:25:45.316Z,1.52
2019-04-22T16:28:15.372Z,1.67
2019-04-22T16:30:45.522Z,1.25
2019-04-22T16:33:15.183Z,1.60
2019-04-22T16:35:44.724Z,1.45
2019-04-22T16:38:14.931Z,1.10
2019-04-22T16:40:44.891Z,1.57
2019-04-22T16:43:13.636Z,1.72
2019-04-22T16:45:43.526Z,1.42
2019-04-22T16:48:13.551Z,1.30
2019-04-22T16:50:43.613Z,1.50
2019-04-22T16:53:14.193Z,1.35
2019-04-22T16:55:46.624Z,1.30
2019-04-22T16:58:16.640Z,1.15
2019-04-22T17:00:46.960Z,1.82
2019-04-22T17:03:18.475Z,1.30
2019-04-22T17:05:51.804Z,1.45
2019-04-22T17:08:22.160Z,1.25
2019-04-22T17:10:51.646Z,1.17
2019-04-22T17:13:24.741Z,1.27
2019-04-22T17:15:51.420Z,1.37
2019-04-22T17:18:21.349Z,1.37
2019-04-22T17:20:50.772Z,1.22
2019-04-22T17:23:20.016Z,1.47
2019-04-22T17:25:48.651Z,1.10
2019-04-22T17:28:17.476Z,1.50
2019-04-22T17:30:46.034Z,1.10
2019-04-22T17:33:34.871Z,1.20
2019-04-22T17:36:03.698Z,1.45
2019-04-22T17:38:43.788Z,1.12
2019-04-22T17:41:20.248Z,1.42
2019-04-22T17:43:53.785Z,1.20
2019-04-22T17:46:36.015Z,1.35
2019-04-22T17:49:17.024Z,1.15
2019-04-22T17:51:49.315Z,1.12
2019-04-22T17:54:15.250Z,1.25
2019-04-22T17:56:45.210Z,1.27
2019-04-22T17:59:17.165Z,1.20
2019-04-22T18:01:43.948Z,1.25
2019-04-22T18:03:57.775Z,1.20
2019-04-22T18:06:48.942Z,1.35
2019-04-22T18:09:14.118Z,1.07
2019-04-22T18:11:48.220Z,1.07
2019-04-22T18:14:30.300Z,1.32
2019-04-22T18:16:47.630Z,1.57
2019-04-22T18:19:15.442Z,1.00
2019-04-22T18:21:42.307Z,1.05
2019-04-22T18:24:06.834Z,1.20
2019-04-22T18:26:43.481Z,1.00
2019-04-22T18:29:20.982Z,1.52
2019-04-22T18:31:35.618Z,1.10
2019-04-22T18:34:10.230Z,1.20
2019-04-22T18:36:40.476Z,1.15
2019-04-22T18:39:37.340Z,1.20
2019-04-22T18:41:46.725Z,1.40
2019-04-22T18:44:16.876Z,1.30
2019-04-22T18:46:44.618Z,0.80
2019-04-22T18:49:12.407Z,1.10
2019-04-22T18:51:46.672Z,1.30
2019-04-22T18:54:30.868Z,1.85
2019-04-22T18:57:07.145Z,1.30
2019-04-22T18:59:20.125Z,1.17
2019-04-22T19:01:43.908Z,1.47
2019-04-22T19:04:19.341Z,1.07
2019-04-22T19:07:03.594Z,1.50
2019-04-22T19:09:45.346Z,1.20
2019-04-22T19:12:18.032Z,1.40
2019-04-22T19:14:57.033Z,1.37
2019-04-22T19:17:32.766Z,1.47
2019-04-22T19:20:06.284Z,1.27
2019-04-22T19:22:29.920Z,1.20
2019-04-22T19:24:54.755Z,1.77
2019-04-22T19:27:24.856Z,1.10
2019-04-22T19:29:57.839Z,1.62
2019-04-22T19:32:26.529Z,1.30
2019-04-22T19:34:55.563Z,1.40
2019-04-22T19:37:42.486Z,1.62
2019-04-22T19:40:19.989Z,1.55
2019-04-22T19:42:53.473Z,1.30
2019-04-22T19:45:14.749Z,1.57
2019-04-22T19:47:51.563Z,1.20
2019-04-22T19:50:16.281Z,1.15
2019-04-22T19:52:44.578Z,1.67
2019-04-22T19:55:16.891Z,1.55
2019-04-22T19:57:43.354Z,1.25
2019-04-22T20:00:18.375Z,1.60
2019-04-22T20:03:16.746Z,1.40
2019-04-22T20:05:47.575Z,2.10
2019-04-22T20:08:17.489Z,1.80
2019-04-22T20:10:47.090Z,1.40
2019-04-22T20:13:21.016Z,1.72
2019-04-22T20:15:37.468Z,1.75
2019-04-22T20:18:27.084Z,1.60
2019-04-22T20:20:49.071Z,1.70
2019-04-22T20:23:09.874Z,1.90
2019-04-22T20:25:40.737Z,1.72
2019-04-22T20:28:19.382Z,1.62
2019-04-22T20:30:46.219Z,2.10
2019-04-22T20:33:18.316Z,1.80
2019-04-22T20:35:51.950Z,1.50
2019-04-22T20:38:19.979Z,1.77
2019-04-22T20:40:47.467Z,2.22
2019-04-22T20:43:21.745Z,1.85
2019-04-22T20:45:46.194Z,1.62
2019-04-22T20:48:07.865Z,1.90
2019-04-22T20:50:48.139Z,2.22
2019-04-22T20:53:25.472Z,1.70
2019-04-22T20:55:48.457Z,1.62
2019-04-22T20:58:21.147Z,1.70
2019-04-22T21:00:40.643Z,1.90
2019-04-22T21:03:11.617Z,1.98
2019-04-22T21:05:40.172Z,1.82
2019-04-22T21:08:19.007Z,1.95
2019-04-22T21:11:04.220Z,2.10
2019-04-22T21:13:33.012Z,1.65
2019-04-22T21:16:09.327Z,1.75
2019-04-22T21:18:30.494Z,1.87
2019-04-22T21:21:07.201Z,1.98
2019-04-22T21:23:30.791Z,2.10
2019-04-22T21:26:24.038Z,1.92
2019-04-22T21:28:53.852Z,1.40
2019-04-22T21:31:33.330Z,1.60
2019-04-22T21:33:59.160Z,1.57
2019-04-22T21:36:35.369Z,1.95
2019-04-22T21:38:57.869Z,1.67
2019-04-22T21:41:28.160Z,1.82
2019-04-22T21:43:58.036Z,2.30
2019-04-22T21:46:30.401Z,1.57
2019-04-22T21:48:59.777Z,1.85
2019-04-22T21:51:31.178Z,2.15
2019-04-22T21:54:06.277Z,2.02
2019-04-22T21:59:02.056Z,1.47
2019-04-22T22:01:50.119Z,1.70
2019-04-22T22:04:15.297Z,2.27
2019-04-22T22:06:35.939Z,1.80
2019-04-22T22:09:15.673Z,1.98
2019-04-22T22:11:40.029Z,1.37
2019-04-22T22:14:11.670Z,1.55
2019-04-22T22:16:34.908Z,1.87
2019-04-22T22:19:11.141Z,1.98
2019-04-22T22:24:20.697Z,2.10
2019-04-22T22:26:46.250Z,2.10
2019-04-22T22:29:24.340Z,2.02
2019-04-22T22:31:47.312Z,1.70
2019-04-22T22:34:19.095Z,1.82
2019-04-22T22:36:36.713Z,2.30
2019-04-22T22:39:08.639Z,2.33
2019-04-22T22:41:23.738Z,1.80
2019-04-22T22:43:57.032Z,1.60
2019-04-22T22:46:31.937Z,2.02
2019-04-22T22:49:20.447Z,1.67
2019-04-22T22:54:17.615Z,2.77
2019-04-22T22:56:51.078Z,2.20
2019-04-22T22:59:18.101Z,1.98
2019-04-22T23:01:46.801Z,2.37
2019-04-22T23:04:16.200Z,2.10
2019-04-22T23:06:46.839Z,2.70
2019-04-22T23:09:14.593Z,2.58
2019-04-22T23:11:57.581Z,1.77
2019-04-22T23:14:14.489Z,2.52
2019-04-22T23:16:33.633Z,2.15
2019-04-22T23:19:02.803Z,2.45
2019-04-22T23:21:39.099Z,2.47
2019-04-22T23:24:21.446Z,2.40
2019-04-22T23:27:00.239Z,2.25
2019-04-22T23:29:24.875Z,2.00
2019-04-22T23:32:22.684Z,1.90
2019-04-22T23:35:00.310Z,2.08
2019-04-22T23:37:29.233Z,2.33
2019-04-22T23:40:13.393Z,2.60
2019-04-22T23:42:35.939Z,2.40
2019-04-22T23:45:11.746Z,2.70
2019-04-22T23:47:29.877Z,2.25
2019-04-22T23:50:02.603Z,1.92
2019-04-22T23:52:37.763Z,2.85
2019-04-22T23:55:08.862Z,2.25
2019-04-22T23:57:42.128Z,2.40
